sensor_id;sensor_type;location;lat;lon;timestamp;P1;durP1;ratioP1;P2;durP2;ratioP2
5912;SDS011;2982;42.684;23.356;2023-11-19T00:01:41;2.17;;;1.57;;
5912;SDS011;2982;42.684;23.356;2023-11-19T00:04:06;0.83;;;0.83;;
5912;SDS011;2982;42.684;23.356;2023-11-19T00:06:32;1.43;;;1.33;;
5912;SDS011;2982;42.684;23.356;2023-11-19T00:08:57;1.10;;;1.10;;
5912;SDS011;2982;42.684;23.356;2023-11-19T00:11:22;1.57;;;1.47;;
5912;SDS011;2982;42.684;23.356;2023-11-19T00:13:47;1.27;;;1.17;;
5912;SDS011;2982;42.684;23.356;2023-11-19T00:16:12;1.60;;;1.47;;
5912;SDS011;2982;42.684;23.356;2023-11-19T00:18:37;1.30;;;1.20;;
5912;SDS011;2982;42.684;23.356;2023-11-19T00:21:03;1.80;;;1.70;;
5912;SDS011;2982;42.684;23.356;2023-11-19T00:23:28;1.27;;;1.17;;
5912;SDS011;2982;42.684;23.356;2023-11-19T00:25:53;1.77;;;1.47;;
5912;SDS011;2982;42.684;23.356;2023-11-19T00:28:18;1.50;;;1.40;;
5912;SDS011;2982;42.684;23.356;2023-11-19T00:30:43;1.40;;;1.30;;
5912;SDS011;2982;42.684;23.356;2023-11-19T00:33:08;1.42;;;1.40;;
5912;SDS011;2982;42.684;23.356;2023-11-19T00:35:34;1.60;;;1.50;;
5912;SDS011;2982;42.684;23.356;2023-11-19T00:37:59;1.07;;;1.07;;
5912;SDS011;2982;42.684;23.356;2023-11-19T00:40:24;1.50;;;1.40;;
5912;SDS011;2982;42.684;23.356;2023-11-19T00:42:49;1.50;;;1.40;;
5912;SDS011;2982;42.684;23.356;2023-11-19T00:45:14;1.77;;;1.67;;
5912;SDS011;2982;42.684;23.356;2023-11-19T00:47:40;1.33;;;1.23;;
5912;SDS011;2982;42.684;23.356;2023-11-19T00:50:05;1.33;;;1.23;;
5912;SDS011;2982;42.684;23.356;2023-11-19T00:52:31;1.57;;;1.47;;
5912;SDS011;2982;42.684;23.356;2023-11-19T00:54:56;2.20;;;2.10;;
5912;SDS011;2982;42.684;23.356;2023-11-19T00:57:21;1.70;;;1.57;;
5912;SDS011;2982;42.684;23.356;2023-11-19T00:59:46;1.80;;;1.45;;
5912;SDS011;2982;42.684;23.356;2023-11-19T01:02:11;1.30;;;1.20;;
5912;SDS011;2982;42.684;23.356;2023-11-19T01:04:36;1.23;;;1.23;;
5912;SDS011;2982;42.684;23.356;2023-11-19T01:07:05;1.30;;;1.20;;
5912;SDS011;2982;42.684;23.356;2023-11-19T01:09:30;1.00;;;1.00;;
5912;SDS011;2982;42.684;23.356;2023-11-19T01:11:56;1.17;;;1.00;;
5912;SDS011;2982;42.684;23.356;2023-11-19T01:14:21;2.30;;;2.10;;
5912;SDS011;2982;42.684;23.356;2023-11-19T01:16:46;1.57;;;1.47;;
5912;SDS011;2982;42.684;23.356;2023-11-19T01:19:11;1.10;;;1.10;;
5912;SDS011;2982;42.684;23.356;2023-11-19T01:21:36;1.43;;;1.33;;
5912;SDS011;2982;42.684;23.356;2023-11-19T01:24:02;1.57;;;1.47;;
5912;SDS011;2982;42.684;23.356;2023-11-19T01:26:27;1.40;;;1.30;;
5912;SDS011;2982;42.684;23.356;2023-11-19T01:28:52;0.90;;;0.90;;
5912;SDS011;2982;42.684;23.356;2023-11-19T01:31:17;1.57;;;1.47;;
5912;SDS011;2982;42.684;23.356;2023-11-19T01:33:42;1.40;;;1.30;;
5912;SDS011;2982;42.684;23.356;2023-11-19T01:36:07;1.27;;;1.17;;
5912;SDS011;2982;42.684;23.356;2023-11-19T01:38:33;2.07;;;1.30;;
5912;SDS011;2982;42.684;23.356;2023-11-19T01:40:58;1.50;;;1.40;;
5912;SDS011;2982;42.684;23.356;2023-11-19T01:45:58;1.43;;;1.30;;
5912;SDS011;2982;42.684;23.356;2023-11-19T01:48:23;1.57;;;1.47;;
5912;SDS011;2982;42.684;23.356;2023-11-19T01:50:48;1.60;;;1.00;;
5912;SDS011;2982;42.684;23.356;2023-11-19T01:53:14;1.50;;;1.40;;
5912;SDS011;2982;42.684;23.356;2023-11-19T01:55:39;0.93;;;0.93;;
5912;SDS011;2982;42.684;23.356;2023-11-19T01:58:04;1.57;;;1.47;;
5912;SDS011;2982;42.684;23.356;2023-11-19T02:00:30;1.33;;;1.23;;
5912;SDS011;2982;42.684;23.356;2023-11-19T02:02:55;1.30;;;1.20;;
5912;SDS011;2982;42.684;23.356;2023-11-19T02:05:20;1.40;;;1.30;;
5912;SDS011;2982;42.684;23.356;2023-11-19T02:07:46;1.63;;;1.27;;
5912;SDS011;2982;42.684;23.356;2023-11-19T02:10:11;1.53;;;1.40;;
5912;SDS011;2982;42.684;23.356;2023-11-19T02:12:36;1.97;;;1.30;;
5912;SDS011;2982;42.684;23.356;2023-11-19T02:15:02;1.07;;;1.00;;
5912;SDS011;2982;42.684;23.356;2023-11-19T02:17:28;1.00;;;1.00;;
5912;SDS011;2982;42.684;23.356;2023-11-19T02:19:59;1.40;;;1.30;;
5912;SDS011;2982;42.684;23.356;2023-11-19T02:22:25;1.20;;;1.20;;
5912;SDS011;2982;42.684;23.356;2023-11-19T02:24:51;1.50;;;1.40;;
5912;SDS011;2982;42.684;23.356;2023-11-19T02:27:21;0.97;;;0.97;;
5912;SDS011;2982;42.684;23.356;2023-11-19T02:29:50;1.30;;;1.20;;
5912;SDS011;2982;42.684;23.356;2023-11-19T02:32:16;1.30;;;1.20;;
5912;SDS011;2982;42.684;23.356;2023-11-19T02:34:41;1.77;;;1.40;;
5912;SDS011;2982;42.684;23.356;2023-11-19T02:37:09;1.43;;;1.20;;
5912;SDS011;2982;42.684;23.356;2023-11-19T02:39:34;1.67;;;0.93;;
5912;SDS011;2982;42.684;23.356;2023-11-19T02:41:59;1.50;;;1.23;;
5912;SDS011;2982;42.684;23.356;2023-11-19T02:44:25;1.03;;;0.93;;
5912;SDS011;2982;42.684;23.356;2023-11-19T02:46:50;1.40;;;1.30;;
5912;SDS011;2982;42.684;23.356;2023-11-19T02:49:15;2.03;;;0.93;;
5912;SDS011;2982;42.684;23.356;2023-11-19T02:51:40;1.13;;;1.13;;
5912;SDS011;2982;42.684;23.356;2023-11-19T02:54:05;1.30;;;1.20;;
5912;SDS011;2982;42.684;23.356;2023-11-19T02:56:31;1.47;;;1.37;;
5912;SDS011;2982;42.684;23.356;2023-11-19T02:58:56;1.77;;;1.57;;
5912;SDS011;2982;42.684;23.356;2023-11-19T03:01:22;1.10;;;1.10;;
5912;SDS011;2982;42.684;23.356;2023-11-19T03:03:47;1.13;;;1.07;;
5912;SDS011;2982;42.684;23.356;2023-11-19T03:06:12;0.97;;;0.97;;
5912;SDS011;2982;42.684;23.356;2023-11-19T03:08:37;1.57;;;1.40;;
5912;SDS011;2982;42.684;23.356;2023-11-19T03:11:02;1.20;;;1.10;;
5912;SDS011;2982;42.684;23.356;2023-11-19T03:13:28;1.30;;;1.10;;
5912;SDS011;2982;42.684;23.356;2023-11-19T03:15:53;1.33;;;1.23;;
5912;SDS011;2982;42.684;23.356;2023-11-19T03:18:18;1.23;;;1.13;;
5912;SDS011;2982;42.684;23.356;2023-11-19T03:20:43;1.20;;;1.00;;
5912;SDS011;2982;42.684;23.356;2023-11-19T03:23:08;2.67;;;1.90;;
5912;SDS011;2982;42.684;23.356;2023-11-19T03:25:34;1.57;;;1.47;;
5912;SDS011;2982;42.684;23.356;2023-11-19T03:27:59;1.23;;;1.07;;
5912;SDS011;2982;42.684;23.356;2023-11-19T03:30:24;3.80;;;1.53;;
5912;SDS011;2982;42.684;23.356;2023-11-19T03:32:50;1.30;;;1.20;;
5912;SDS011;2982;42.684;23.356;2023-11-19T03:35:15;3.60;;;1.50;;
5912;SDS011;2982;42.684;23.356;2023-11-19T03:37:40;1.60;;;1.50;;
5912;SDS011;2982;42.684;23.356;2023-11-19T03:40:05;2.40;;;1.60;;
5912;SDS011;2982;42.684;23.356;2023-11-19T03:42:31;1.37;;;1.27;;
5912;SDS011;2982;42.684;23.356;2023-11-19T03:44:56;1.67;;;1.57;;
5912;SDS011;2982;42.684;23.356;2023-11-19T03:47:21;1.70;;;1.50;;
5912;SDS011;2982;42.684;23.356;2023-11-19T03:49:50;1.43;;;1.33;;
5912;SDS011;2982;42.684;23.356;2023-11-19T03:52:15;3.77;;;1.30;;
5912;SDS011;2982;42.684;23.356;2023-11-19T03:54:40;1.77;;;1.67;;
5912;SDS011;2982;42.684;23.356;2023-11-19T03:57:06;1.20;;;1.10;;
5912;SDS011;2982;42.684;23.356;2023-11-19T03:59:31;1.53;;;1.43;;
5912;SDS011;2982;42.684;23.356;2023-11-19T04:01:56;1.50;;;1.20;;
5912;SDS011;2982;42.684;23.356;2023-11-19T04:04:21;1.37;;;1.10;;
5912;SDS011;2982;42.684;23.356;2023-11-19T04:06:46;2.90;;;1.47;;
5912;SDS011;2982;42.684;23.356;2023-11-19T04:09:11;1.27;;;1.02;;
5912;SDS011;2982;42.684;23.356;2023-11-19T04:11:37;1.53;;;1.23;;
5912;SDS011;2982;42.684;23.356;2023-11-19T04:14:02;1.23;;;1.17;;
5912;SDS011;2982;42.684;23.356;2023-11-19T04:16:27;1.17;;;1.07;;
5912;SDS011;2982;42.684;23.356;2023-11-19T04:18:52;1.10;;;1.10;;
5912;SDS011;2982;42.684;23.356;2023-11-19T04:21:20;0.93;;;0.93;;
5912;SDS011;2982;42.684;23.356;2023-11-19T04:23:46;1.37;;;1.27;;
5912;SDS011;2982;42.684;23.356;2023-11-19T04:26:11;2.10;;;1.40;;
5912;SDS011;2982;42.684;23.356;2023-11-19T04:28:36;0.87;;;0.87;;
5912;SDS011;2982;42.684;23.356;2023-11-19T04:31:01;1.53;;;1.43;;
5912;SDS011;2982;42.684;23.356;2023-11-19T04:33:27;1.40;;;1.30;;
5912;SDS011;2982;42.684;23.356;2023-11-19T04:35:54;1.00;;;1.00;;
5912;SDS011;2982;42.684;23.356;2023-11-19T04:38:21;0.83;;;0.80;;
5912;SDS011;2982;42.684;23.356;2023-11-19T04:40:47;1.43;;;1.33;;
5912;SDS011;2982;42.684;23.356;2023-11-19T04:43:12;6.47;;;1.47;;
5912;SDS011;2982;42.684;23.356;2023-11-19T04:45:37;1.43;;;1.33;;
5912;SDS011;2982;42.684;23.356;2023-11-19T04:48:04;1.63;;;0.87;;
5912;SDS011;2982;42.684;23.356;2023-11-19T04:50:31;1.50;;;1.40;;
5912;SDS011;2982;42.684;23.356;2023-11-19T04:52:56;1.77;;;1.13;;
5912;SDS011;2982;42.684;23.356;2023-11-19T04:55:23;1.40;;;1.30;;
5912;SDS011;2982;42.684;23.356;2023-11-19T04:57:53;1.50;;;1.40;;
5912;SDS011;2982;42.684;23.356;2023-11-19T05:00:28;1.50;;;1.50;;
5912;SDS011;2982;42.684;23.356;2023-11-19T05:02:55;1.27;;;1.17;;
5912;SDS011;2982;42.684;23.356;2023-11-19T05:05:22;1.90;;;1.70;;
5912;SDS011;2982;42.684;23.356;2023-11-19T05:07:47;2.03;;;1.93;;
5912;SDS011;2982;42.684;23.356;2023-11-19T05:10:13;1.23;;;1.13;;
5912;SDS011;2982;42.684;23.356;2023-11-19T05:12:38;1.00;;;0.97;;
5912;SDS011;2982;42.684;23.356;2023-11-19T05:15:05;1.33;;;1.17;;
5912;SDS011;2982;42.684;23.356;2023-11-19T05:17:39;1.53;;;1.43;;
5912;SDS011;2982;42.684;23.356;2023-11-19T05:20:04;1.10;;;1.00;;
5912;SDS011;2982;42.684;23.356;2023-11-19T05:22:30;1.63;;;1.20;;
5912;SDS011;2982;42.684;23.356;2023-11-19T05:24:55;1.30;;;1.20;;
5912;SDS011;2982;42.684;23.356;2023-11-19T05:27:20;1.43;;;1.33;;
5912;SDS011;2982;42.684;23.356;2023-11-19T05:29:45;1.33;;;1.23;;
5912;SDS011;2982;42.684;23.356;2023-11-19T05:32:11;1.67;;;1.57;;
5912;SDS011;2982;42.684;23.356;2023-11-19T05:34:36;1.50;;;1.40;;
5912;SDS011;2982;42.684;23.356;2023-11-19T05:37:01;1.83;;;1.70;;
5912;SDS011;2982;42.684;23.356;2023-11-19T05:39:27;1.40;;;1.30;;
5912;SDS011;2982;42.684;23.356;2023-11-19T05:41:53;2.07;;;1.10;;
5912;SDS011;2982;42.684;23.356;2023-11-19T05:44:24;1.40;;;1.30;;
5912;SDS011;2982;42.684;23.356;2023-11-19T05:46:52;1.27;;;1.23;;
5912;SDS011;2982;42.684;23.356;2023-11-19T05:49:17;1.33;;;1.23;;
5912;SDS011;2982;42.684;23.356;2023-11-19T05:51:42;1.77;;;1.63;;
5912;SDS011;2982;42.684;23.356;2023-11-19T05:54:08;0.90;;;0.90;;
5912;SDS011;2982;42.684;23.356;2023-11-19T05:56:33;1.13;;;1.10;;
5912;SDS011;2982;42.684;23.356;2023-11-19T05:59:00;3.30;;;1.30;;
5912;SDS011;2982;42.684;23.356;2023-11-19T06:01:26;1.67;;;1.57;;
5912;SDS011;2982;42.684;23.356;2023-11-19T06:03:51;2.03;;;1.37;;
5912;SDS011;2982;42.684;23.356;2023-11-19T06:06:16;1.57;;;1.20;;
5912;SDS011;2982;42.684;23.356;2023-11-19T06:08:42;1.13;;;0.93;;
5912;SDS011;2982;42.684;23.356;2023-11-19T06:11:07;1.60;;;1.50;;
5912;SDS011;2982;42.684;23.356;2023-11-19T06:13:32;1.40;;;1.30;;
5912;SDS011;2982;42.684;23.356;2023-11-19T06:15:57;1.47;;;1.37;;
5912;SDS011;2982;42.684;23.356;2023-11-19T06:18:23;1.40;;;1.30;;
5912;SDS011;2982;42.684;23.356;2023-11-19T06:20:48;1.47;;;1.37;;
5912;SDS011;2982;42.684;23.356;2023-11-19T06:23:14;1.43;;;1.13;;
5912;SDS011;2982;42.684;23.356;2023-11-19T06:25:39;3.17;;;1.67;;
5912;SDS011;2982;42.684;23.356;2023-11-19T06:28:04;1.60;;;1.47;;
5912;SDS011;2982;42.684;23.356;2023-11-19T06:30:29;1.60;;;1.50;;
5912;SDS011;2982;42.684;23.356;2023-11-19T06:32:55;1.63;;;1.53;;
5912;SDS011;2982;42.684;23.356;2023-11-19T06:35:20;1.47;;;1.37;;
5912;SDS011;2982;42.684;23.356;2023-11-19T06:37:45;1.53;;;1.43;;
5912;SDS011;2982;42.684;23.356;2023-11-19T06:40:10;1.80;;;1.70;;
5912;SDS011;2982;42.684;23.356;2023-11-19T07:03:16;1.27;;;1.20;;
5912;SDS011;2982;42.684;23.356;2023-11-19T07:06:01;1.30;;;1.30;;
5912;SDS011;2982;42.684;23.356;2023-11-19T07:08:49;1.33;;;1.23;;
5912;SDS011;2982;42.684;23.356;2023-11-19T07:11:41;1.60;;;1.50;;
5912;SDS011;2982;42.684;23.356;2023-11-19T07:14:28;2.17;;;1.97;;
5912;SDS011;2982;42.684;23.356;2023-11-19T07:17:13;1.60;;;1.50;;
5912;SDS011;2982;42.684;23.356;2023-11-19T07:19:39;1.07;;;1.07;;
5912;SDS011;2982;42.684;23.356;2023-11-19T07:42:44;2.03;;;1.80;;
5912;SDS011;2982;42.684;23.356;2023-11-19T07:45:29;1.80;;;1.70;;
5912;SDS011;2982;42.684;23.356;2023-11-19T07:48:21;1.83;;;1.73;;
5912;SDS011;2982;42.684;23.356;2023-11-19T07:51:08;2.30;;;2.20;;
5912;SDS011;2982;42.684;23.356;2023-11-19T07:53:40;1.73;;;1.63;;
5912;SDS011;2982;42.684;23.356;2023-11-19T07:56:06;1.63;;;1.53;;
5912;SDS011;2982;42.684;23.356;2023-11-19T07:58:33;1.37;;;1.03;;
5912;SDS011;2982;42.684;23.356;2023-11-19T08:11:38;2.17;;;1.97;;
5912;SDS011;2982;42.684;23.356;2023-11-19T08:32:28;2.40;;;1.90;;
5912;SDS011;2982;42.684;23.356;2023-11-19T08:34:54;1.63;;;1.53;;
5912;SDS011;2982;42.684;23.356;2023-11-19T08:37:39;3.30;;;1.90;;
5912;SDS011;2982;42.684;23.356;2023-11-19T08:40:08;2.10;;;2.00;;
5912;SDS011;2982;42.684;23.356;2023-11-19T08:42:35;2.23;;;1.47;;
5912;SDS011;2982;42.684;23.356;2023-11-19T08:45:04;1.90;;;1.80;;
5912;SDS011;2982;42.684;23.356;2023-11-19T08:47:52;4.47;;;1.37;;
5912;SDS011;2982;42.684;23.356;2023-11-19T08:50:37;2.00;;;1.80;;
5912;SDS011;2982;42.684;23.356;2023-11-19T08:53:04;1.87;;;1.77;;
5912;SDS011;2982;42.684;23.356;2023-11-19T08:55:30;1.90;;;1.80;;
5912;SDS011;2982;42.684;23.356;2023-11-19T08:57:55;1.73;;;1.63;;
5912;SDS011;2982;42.684;23.356;2023-11-19T09:00:20;1.50;;;1.40;;
5912;SDS011;2982;42.684;23.356;2023-11-19T09:02:48;3.30;;;1.50;;
5912;SDS011;2982;42.684;23.356;2023-11-19T09:05:13;1.60;;;1.50;;
5912;SDS011;2982;42.684;23.356;2023-11-19T09:07:38;1.40;;;1.30;;
5912;SDS011;2982;42.684;23.356;2023-11-19T09:10:03;3.20;;;1.37;;
5912;SDS011;2982;42.684;23.356;2023-11-19T09:12:31;0.80;;;0.80;;
5912;SDS011;2982;42.684;23.356;2023-11-19T09:14:59;1.53;;;1.43;;
5912;SDS011;2982;42.684;23.356;2023-11-19T09:17:24;2.20;;;2.00;;
5912;SDS011;2982;42.684;23.356;2023-11-19T09:19:50;1.50;;;1.40;;
5912;SDS011;2982;42.684;23.356;2023-11-19T09:22:15;2.57;;;1.80;;
5912;SDS011;2982;42.684;23.356;2023-11-19T09:24:40;1.97;;;1.83;;
5912;SDS011;2982;42.684;23.356;2023-11-19T09:27:05;6.03;;;2.13;;
5912;SDS011;2982;42.684;23.356;2023-11-19T09:29:34;1.57;;;1.47;;
5912;SDS011;2982;42.684;23.356;2023-11-19T09:31:59;1.43;;;1.33;;
5912;SDS011;2982;42.684;23.356;2023-11-19T09:34:26;2.07;;;1.90;;
5912;SDS011;2982;42.684;23.356;2023-11-19T09:36:52;1.40;;;1.30;;
5912;SDS011;2982;42.684;23.356;2023-11-19T09:39:17;1.43;;;1.37;;
5912;SDS011;2982;42.684;23.356;2023-11-19T09:41:42;1.70;;;1.60;;
5912;SDS011;2982;42.684;23.356;2023-11-19T09:44:08;2.07;;;1.87;;
5912;SDS011;2982;42.684;23.356;2023-11-19T09:46:39;1.83;;;1.73;;
5912;SDS011;2982;42.684;23.356;2023-11-19T09:49:11;2.13;;;1.93;;
5912;SDS011;2982;42.684;23.356;2023-11-19T09:51:56;1.73;;;1.63;;
5912;SDS011;2982;42.684;23.356;2023-11-19T09:54:24;4.23;;;1.47;;
5912;SDS011;2982;42.684;23.356;2023-11-19T09:56:49;2.70;;;2.37;;
5912;SDS011;2982;42.684;23.356;2023-11-19T10:04:23;1.37;;;1.27;;
5912;SDS011;2982;42.684;23.356;2023-11-19T10:06:49;1.10;;;1.00;;
5912;SDS011;2982;42.684;23.356;2023-11-19T10:09:15;2.47;;;1.33;;
5912;SDS011;2982;42.684;23.356;2023-11-19T10:29:46;1.47;;;1.37;;
5912;SDS011;2982;42.684;23.356;2023-11-19T10:45:26;2.73;;;1.67;;
5912;SDS011;2982;42.684;23.356;2023-11-19T10:58:45;1.53;;;1.43;;
5912;SDS011;2982;42.684;23.356;2023-11-19T11:01:44;1.50;;;1.40;;
5912;SDS011;2982;42.684;23.356;2023-11-19T11:04:29;1.70;;;1.60;;
5912;SDS011;2982;42.684;23.356;2023-11-19T11:07:04;6.77;;;1.57;;
5912;SDS011;2982;42.684;23.356;2023-11-19T11:09:37;1.30;;;1.20;;
5912;SDS011;2982;42.684;23.356;2023-11-19T11:12:21;1.50;;;1.40;;
5912;SDS011;2982;42.684;23.356;2023-11-19T11:26:06;1.30;;;1.20;;
5912;SDS011;2982;42.684;23.356;2023-11-19T11:28:19;1.27;;;1.17;;
5912;SDS011;2982;42.684;23.356;2023-11-19T11:31:03;1.43;;;1.33;;
5912;SDS011;2982;42.684;23.356;2023-11-19T11:39:49;0.97;;;0.93;;
5912;SDS011;2982;42.684;23.356;2023-11-19T11:42:35;1.27;;;1.17;;
5912;SDS011;2982;42.684;23.356;2023-11-19T11:45:34;1.10;;;1.00;;
5912;SDS011;2982;42.684;23.356;2023-11-19T11:48:10;0.70;;;0.70;;
5912;SDS011;2982;42.684;23.356;2023-11-19T11:50:56;1.10;;;1.00;;
5912;SDS011;2982;42.684;23.356;2023-11-19T11:53:41;1.40;;;1.30;;
5912;SDS011;2982;42.684;23.356;2023-11-19T19:18:18;5.17;;;4.30;;
5912;SDS011;2982;42.684;23.356;2023-11-19T20:04:43;3.40;;;2.97;;
5912;SDS011;2982;42.684;23.356;2023-11-19T20:07:30;4.00;;;3.00;;
5912;SDS011;2982;42.684;23.356;2023-11-19T20:10:15;3.63;;;3.00;;
5912;SDS011;2982;42.684;23.356;2023-11-19T20:13:00;4.93;;;2.90;;
5912;SDS011;2982;42.684;23.356;2023-11-19T20:15:29;3.10;;;2.83;;
5912;SDS011;2982;42.684;23.356;2023-11-19T20:28:34;3.10;;;2.80;;
5912;SDS011;2982;42.684;23.356;2023-11-19T20:31:19;4.10;;;2.73;;
5912;SDS011;2982;42.684;23.356;2023-11-19T20:34:06;3.90;;;3.60;;
5912;SDS011;2982;42.684;23.356;2023-11-19T21:20:49;4.30;;;3.90;;
5912;SDS011;2982;42.684;23.356;2023-11-19T21:23:37;7.13;;;4.73;;
5912;SDS011;2982;42.684;23.356;2023-11-19T21:26:22;4.53;;;4.13;;
5912;SDS011;2982;42.684;23.356;2023-11-19T21:31:53;6.70;;;5.00;;
5912;SDS011;2982;42.684;23.356;2023-11-19T21:34:38;4.80;;;4.33;;
5912;SDS011;2982;42.684;23.356;2023-11-19T21:37:04;6.20;;;5.33;;
5912;SDS011;2982;42.684;23.356;2023-11-19T21:39:40;6.50;;;4.87;;
5912;SDS011;2982;42.684;23.356;2023-11-19T21:42:08;9.60;;;5.17;;
5912;SDS011;2982;42.684;23.356;2023-11-19T21:44:42;5.47;;;4.93;;
5912;SDS011;2982;42.684;23.356;2023-11-19T21:47:07;8.13;;;5.57;;
5912;SDS011;2982;42.684;23.356;2023-11-19T21:49:33;7.47;;;6.10;;
5912;SDS011;2982;42.684;23.356;2023-11-19T21:52:00;7.63;;;5.10;;
5912;SDS011;2982;42.684;23.356;2023-11-19T21:54:25;7.00;;;5.17;;
5912;SDS011;2982;42.684;23.356;2023-11-19T21:56:51;7.17;;;4.23;;
5912;SDS011;2982;42.684;23.356;2023-11-19T21:59:16;5.00;;;4.43;;
5912;SDS011;2982;42.684;23.356;2023-11-19T22:01:44;5.40;;;4.50;;
5912;SDS011;2982;42.684;23.356;2023-11-19T22:04:09;6.90;;;5.53;;
5912;SDS011;2982;42.684;23.356;2023-11-19T22:06:37;4.20;;;3.80;;
5912;SDS011;2982;42.684;23.356;2023-11-19T22:09:02;4.43;;;3.07;;
5912;SDS011;2982;42.684;23.356;2023-11-19T22:11:27;5.80;;;3.73;;
5912;SDS011;2982;42.684;23.356;2023-11-19T22:13:53;3.23;;;2.97;;
5912;SDS011;2982;42.684;23.356;2023-11-19T22:16:19;3.60;;;3.30;;
5912;SDS011;2982;42.684;23.356;2023-11-19T22:18:53;4.23;;;3.70;;
5912;SDS011;2982;42.684;23.356;2023-11-19T22:21:20;6.13;;;4.00;;
5912;SDS011;2982;42.684;23.356;2023-11-19T22:23:50;6.10;;;4.27;;
5912;SDS011;2982;42.684;23.356;2023-11-19T22:26:16;5.83;;;4.27;;
5912;SDS011;2982;42.684;23.356;2023-11-19T22:29:02;12.23;;;8.53;;
5912;SDS011;2982;42.684;23.356;2023-11-19T22:31:32;13.20;;;8.20;;
5912;SDS011;2982;42.684;23.356;2023-11-19T22:34:05;12.73;;;8.83;;
5912;SDS011;2982;42.684;23.356;2023-11-19T22:36:47;15.90;;;9.50;;
5912;SDS011;2982;42.684;23.356;2023-11-19T22:39:33;13.80;;;9.37;;
5912;SDS011;2982;42.684;23.356;2023-11-19T22:41:58;17.50;;;9.67;;
5912;SDS011;2982;42.684;23.356;2023-11-19T22:44:43;18.00;;;9.40;;
5912;SDS011;2982;42.684;23.356;2023-11-19T22:47:28;15.87;;;9.90;;
5912;SDS011;2982;42.684;23.356;2023-11-19T22:50:01;12.93;;;8.93;;
5912;SDS011;2982;42.684;23.356;2023-11-19T22:52:46;19.90;;;9.17;;
5912;SDS011;2982;42.684;23.356;2023-11-19T22:55:12;17.27;;;8.63;;
5912;SDS011;2982;42.684;23.356;2023-11-19T22:58:00;12.30;;;8.87;;
5912;SDS011;2982;42.684;23.356;2023-11-19T23:00:28;11.23;;;8.73;;
5912;SDS011;2982;42.684;23.356;2023-11-19T23:02:57;10.47;;;8.63;;
5912;SDS011;2982;42.684;23.356;2023-11-19T23:05:22;14.57;;;9.17;;
5912;SDS011;2982;42.684;23.356;2023-11-19T23:07:48;16.80;;;8.47;;
5912;SDS011;2982;42.684;23.356;2023-11-19T23:10:13;9.87;;;7.90;;
5912;SDS011;2982;42.684;23.356;2023-11-19T23:12:38;11.87;;;8.07;;
5912;SDS011;2982;42.684;23.356;2023-11-19T23:15:04;11.57;;;7.30;;
5912;SDS011;2982;42.684;23.356;2023-11-19T23:17:29;13.37;;;8.90;;
5912;SDS011;2982;42.684;23.356;2023-11-19T23:19:56;10.43;;;8.17;;
5912;SDS011;2982;42.684;23.356;2023-11-19T23:22:21;9.48;;;6.53;;
5912;SDS011;2982;42.684;23.356;2023-11-19T23:24:46;9.57;;;6.17;;
5912;SDS011;2982;42.684;23.356;2023-11-19T23:27:11;6.33;;;5.47;;
5912;SDS011;2982;42.684;23.356;2023-11-19T23:29:36;5.63;;;5.05;;
5912;SDS011;2982;42.684;23.356;2023-11-19T23:32:02;7.33;;;5.77;;
5912;SDS011;2982;42.684;23.356;2023-11-19T23:34:27;7.90;;;6.17;;
5912;SDS011;2982;42.684;23.356;2023-11-19T23:36:52;8.43;;;6.63;;
5912;SDS011;2982;42.684;23.356;2023-11-19T23:39:17;9.05;;;6.82;;
5912;SDS011;2982;42.684;23.356;2023-11-19T23:41:42;13.68;;;7.50;;
5912;SDS011;2982;42.684;23.356;2023-11-19T23:44:07;9.33;;;7.83;;
5912;SDS011;2982;42.684;23.356;2023-11-19T23:46:33;12.23;;;8.23;;
5912;SDS011;2982;42.684;23.356;2023-11-19T23:48:58;13.93;;;7.77;;
5912;SDS011;2982;42.684;23.356;2023-11-19T23:51:23;11.77;;;7.67;;
5912;SDS011;2982;42.684;23.356;2023-11-19T23:53:48;14.27;;;6.93;;
5912;SDS011;2982;42.684;23.356;2023-11-19T23:56:13;8.30;;;6.70;;
5912;SDS011;2982;42.684;23.356;2023-11-19T23:58:38;10.00;;;6.97;;
